Cruz Bay, VI (00830)

3:39 AM AST on August 04, 2015 (GMT -0400)
ISTJOHNC2 | | Change Station
CLOSE
Current Station
Personal Weather Station
Location: Estate Bethany, ST. JOHN
Elevation: 443 ft
Nearby Weather Stations

Elev 443 ft 18.33 °N, 64.78 °W | Updated 12 minutes ago

Partly Cloudy
Partly Cloudy
79.7 °F
Feels Like 84 °F
N
2.0
Wind Variable Wind from NE
Gusts 12.0 mph

Today
High -- | Low -- °F
--% Chance of Precip.
Yesterday
High -- | Low -- °F
Precip. -- in
5:57 AM 6:52 PM
Waning Gibbous, 80% visible
Pressure 30.03 in
Visibility 10.0 miles
Clouds Few 2800 ft
Heat Index 84 °F
Dew Point 74 °F
Humidity 83%
Rainfall 0.00 in
Snow Depth Not available.
UV 0 out of 12
Pollen Not available.
Air Quality Not available.
Flu Activity Not available.
METAR TIST 040653Z 08010KT 10SM FEW028 28/23 A3003 RMK AO2 SLP168 T02830228

More Conditions Fewer Conditions

Pressure 30.03 in
Visibility 10.0 miles
Clouds Few 2800 ft
Heat Index 84 °F
Dew Point 74 °F
Humidity 83%
Rainfall 0.00 in
Snow Depth Not available.
UV 0 out of 12
Pollen Not available.
Air Quality Not available.
Flu Activity Not available.
METAR TIST 040653Z 08010KT 10SM FEW028 28/23 A3003 RMK AO2 SLP168 T02830228

More Conditions Fewer Conditions

10-Day Weather Forecast

×

Almanac

Astronomy

Aug. 04, 2015 Rise Set
Actual Time
Civil Twilight
Nautical Twilight
Astronomical Twilight
Moon
Length of Visible Light
Length of Day
Tomorrow will be .
, % of the Moon is Illuminated

Today's Extremes

State Highs State Lows

Community

WunderPhotos

Upload Photos

1,843,877 photos uploaded!

WunderBlogs® & News

Nearby

Air Quality

  Air Quality AQ Index Pollutant
Not available.

Snow Depth

Station Depth Elevation

Earthquake Activity

City Distance Mag. Time & Date
Minimum magnitude displayed is 2.5.

Coastal Water Temperatures

Place Temperature

Stations

Nearby Weather Stations

Station Location Temp. Windchill Dew Point Humidity Wind Precip. Elev Updated Type